ROMMA est une association bénévole à but non lucratif. Votre soutien est indispensable : ADHERER à ROMMA ou FAIRE un DON

Le Versoud - (38, Isère)

Vallée du Grésivaudan (220 m)   Longitude: 05° 51' 44" E   Latitude: 45° 13' 06" N Station partenaire n°6
 

Détail journalier du     <<     >>

Température Humidité Pression Vent Dir Rafale Dir. rafale Ensol.
Heure (°C) (%) (hPa) (km/h) (km/h) (min)
01:00 21.077101200---0
02:00 20.180101200---0
03:00 19.683101200---0
04:00 19.679101200---0
05:00 18.484101300---0
06:00 18.285101300---0
07:00 19.083101300---10
08:00 20.674101300---35
09:00 22.469101300---20
10:00 23.762101300---15
11:00 25.558101302N25
12:00 26.652101302N50
13:00 28.946101203NNO60
14:00 29.742101206NNO60
15:00 31.442101108N60
16:00 31.340101108NNO60
17:00 31.935101106NNO60
18:00 32.132101006NNO50
19:00 30.642101005N15
20:00 29.551101002N45
21:00 27.657101002N45
22:00 26.252101102NNE0
23:00 24.459101100---0
minuit 23.861101100---0

Graphique du 08-07-2019

 

Serveur OMMA